Terminal Aerodrome Forecast
Issued by NWS

Home | Current Version | Previous Version | Text Only | Print | Product List | Glossary On
Versions: 1 2 3 4 5 6 7 8 9 10 11 12 13 14
000
FTUS46 KLOX 060800 AAB
TAFPMD
TAF AMD
KPMD 060806Z 0608/0706 22014KT P6SM SKC
     FM061800 23022G30KT P6SM SKC
     FM062100 23024G36KT 6SM BLDU FEW060
     FM070300 23021G26KT P6SM SKC=

USA.gov is the U.S. government's official web portal to all federal, state and local government web resources and services.